sensor_id;sensor_type;location;lat;lon;timestamp;temperature;humidity
8965;DHT22;4517;49.020;12.066;2022-07-24T00:02:22;18.20;99.90
8965;DHT22;4517;49.020;12.066;2022-07-24T00:04:47;18.10;99.90
8965;DHT22;4517;49.020;12.066;2022-07-24T00:07:13;18.20;99.90
8965;DHT22;4517;49.020;12.066;2022-07-24T00:09:39;18.30;99.90
8965;DHT22;4517;49.020;12.066;2022-07-24T00:12:05;18.30;99.90
8965;DHT22;4517;49.020;12.066;2022-07-24T00:14:30;18.30;99.90
8965;DHT22;4517;49.020;12.066;2022-07-24T00:16:56;18.40;99.90
8965;DHT22;4517;49.020;12.066;2022-07-24T00:19:21;18.50;99.90
8965;DHT22;4517;49.020;12.066;2022-07-24T00:21:47;18.60;99.90
8965;DHT22;4517;49.020;12.066;2022-07-24T00:24:13;18.70;99.90
8965;DHT22;4517;49.020;12.066;2022-07-24T00:26:38;18.80;99.90
8965;DHT22;4517;49.020;12.066;2022-07-24T00:29:04;18.80;99.90
8965;DHT22;4517;49.020;12.066;2022-07-24T00:31:30;18.80;99.90
8965;DHT22;4517;49.020;12.066;2022-07-24T00:33:55;18.90;99.90
8965;DHT22;4517;49.020;12.066;2022-07-24T00:36:21;18.90;99.90
8965;DHT22;4517;49.020;12.066;2022-07-24T00:38:47;18.90;99.90
8965;DHT22;4517;49.020;12.066;2022-07-24T00:41:12;18.90;99.90
8965;DHT22;4517;49.020;12.066;2022-07-24T00:44:01;19.00;99.90
8965;DHT22;4517;49.020;12.066;2022-07-24T00:46:28;19.10;99.90
8965;DHT22;4517;49.020;12.066;2022-07-24T00:48:54;18.90;99.90
8965;DHT22;4517;49.020;12.066;2022-07-24T00:51:20;18.90;99.90
8965;DHT22;4517;49.020;12.066;2022-07-24T00:53:46;18.90;99.90
8965;DHT22;4517;49.020;12.066;2022-07-24T00:56:13;19.00;99.90
8965;DHT22;4517;49.020;12.066;2022-07-24T00:58:38;18.90;99.90
8965;DHT22;4517;49.020;12.066;2022-07-24T01:01:04;18.80;99.90
8965;DHT22;4517;49.020;12.066;2022-07-24T01:03:29;18.70;99.90
8965;DHT22;4517;49.020;12.066;2022-07-24T01:05:55;18.60;99.90
8965;DHT22;4517;49.020;12.066;2022-07-24T01:08:21;18.60;99.90
8965;DHT22;4517;49.020;12.066;2022-07-24T01:10:47;18.50;99.90
8965;DHT22;4517;49.020;12.066;2022-07-24T01:13:12;18.50;99.90
8965;DHT22;4517;49.020;12.066;2022-07-24T01:15:38;18.50;99.90
8965;DHT22;4517;49.020;12.066;2022-07-24T01:18:04;18.60;99.90
8965;DHT22;4517;49.020;12.066;2022-07-24T01:20:30;18.60;99.90
8965;DHT22;4517;49.020;12.066;2022-07-24T01:22:55;18.60;99.90
8965;DHT22;4517;49.020;12.066;2022-07-24T01:25:21;18.60;99.90
8965;DHT22;4517;49.020;12.066;2022-07-24T01:27:47;18.60;99.90
8965;DHT22;4517;49.020;12.066;2022-07-24T01:30:12;18.60;99.90
8965;DHT22;4517;49.020;12.066;2022-07-24T01:32:38;18.50;99.90
8965;DHT22;4517;49.020;12.066;2022-07-24T01:35:05;18.40;99.90
8965;DHT22;4517;49.020;12.066;2022-07-24T01:37:31;18.40;99.90
8965;DHT22;4517;49.020;12.066;2022-07-24T01:39:56;18.40;99.90
8965;DHT22;4517;49.020;12.066;2022-07-24T01:42:22;18.50;99.90
8965;DHT22;4517;49.020;12.066;2022-07-24T01:44:50;18.50;99.90
8965;DHT22;4517;49.020;12.066;2022-07-24T01:47:16;18.70;99.90
8965;DHT22;4517;49.020;12.066;2022-07-24T01:49:42;18.80;99.90
8965;DHT22;4517;49.020;12.066;2022-07-24T01:52:08;18.80;99.90
8965;DHT22;4517;49.020;12.066;2022-07-24T01:54:33;18.90;99.90
8965;DHT22;4517;49.020;12.066;2022-07-24T01:56:59;18.90;99.90
8965;DHT22;4517;49.020;12.066;2022-07-24T01:59:25;18.90;99.90
8965;DHT22;4517;49.020;12.066;2022-07-24T02:01:50;18.90;99.90
8965;DHT22;4517;49.020;12.066;2022-07-24T02:04:16;18.80;99.90
8965;DHT22;4517;49.020;12.066;2022-07-24T02:06:42;18.70;99.90
8965;DHT22;4517;49.020;12.066;2022-07-24T02:09:07;18.70;99.90
8965;DHT22;4517;49.020;12.066;2022-07-24T02:11:33;18.60;99.90
8965;DHT22;4517;49.020;12.066;2022-07-24T02:13:59;18.60;99.90
8965;DHT22;4517;49.020;12.066;2022-07-24T02:16:26;18.60;99.90
8965;DHT22;4517;49.020;12.066;2022-07-24T02:18:51;18.60;99.90
8965;DHT22;4517;49.020;12.066;2022-07-24T02:21:17;18.50;99.90
8965;DHT22;4517;49.020;12.066;2022-07-24T02:23:43;18.40;99.90
8965;DHT22;4517;49.020;12.066;2022-07-24T02:26:08;18.50;99.90
8965;DHT22;4517;49.020;12.066;2022-07-24T02:28:34;18.60;99.90
8965;DHT22;4517;49.020;12.066;2022-07-24T02:30:59;18.60;99.90
8965;DHT22;4517;49.020;12.066;2022-07-24T02:33:25;18.50;99.90
8965;DHT22;4517;49.020;12.066;2022-07-24T02:35:51;18.50;99.90
8965;DHT22;4517;49.020;12.066;2022-07-24T02:38:16;18.50;99.90
8965;DHT22;4517;49.020;12.066;2022-07-24T02:40:42;18.50;99.90
8965;DHT22;4517;49.020;12.066;2022-07-24T02:43:07;18.50;99.90
8965;DHT22;4517;49.020;12.066;2022-07-24T02:45:33;18.50;99.90
8965;DHT22;4517;49.020;12.066;2022-07-24T02:47:59;18.40;99.90
8965;DHT22;4517;49.020;12.066;2022-07-24T02:50:32;18.40;99.90
8965;DHT22;4517;49.020;12.066;2022-07-24T02:52:58;18.30;99.90
8965;DHT22;4517;49.020;12.066;2022-07-24T02:55:24;18.20;99.90
8965;DHT22;4517;49.020;12.066;2022-07-24T02:57:51;18.20;99.90
8965;DHT22;4517;49.020;12.066;2022-07-24T03:00:17;18.10;99.90
8965;DHT22;4517;49.020;12.066;2022-07-24T03:02:43;18.10;99.90
8965;DHT22;4517;49.020;12.066;2022-07-24T03:05:09;18.00;99.90
8965;DHT22;4517;49.020;12.066;2022-07-24T03:07:35;17.90;99.90
8965;DHT22;4517;49.020;12.066;2022-07-24T03:10:06;17.90;99.90
8965;DHT22;4517;49.020;12.066;2022-07-24T03:12:31;17.90;99.90
8965;DHT22;4517;49.020;12.066;2022-07-24T03:14:57;17.90;99.90
8965;DHT22;4517;49.020;12.066;2022-07-24T03:17:23;17.90;99.90
8965;DHT22;4517;49.020;12.066;2022-07-24T03:19:49;17.90;99.90
8965;DHT22;4517;49.020;12.066;2022-07-24T03:22:15;17.90;99.90
8965;DHT22;4517;49.020;12.066;2022-07-24T03:24:40;17.90;99.90
8965;DHT22;4517;49.020;12.066;2022-07-24T03:27:06;17.80;99.90
8965;DHT22;4517;49.020;12.066;2022-07-24T03:29:31;17.80;99.90
8965;DHT22;4517;49.020;12.066;2022-07-24T03:31:57;17.90;99.90
8965;DHT22;4517;49.020;12.066;2022-07-24T03:34:23;18.00;99.90
8965;DHT22;4517;49.020;12.066;2022-07-24T03:36:48;18.00;99.90
8965;DHT22;4517;49.020;12.066;2022-07-24T03:39:14;17.90;99.90
8965;DHT22;4517;49.020;12.066;2022-07-24T03:41:39;17.90;99.90
8965;DHT22;4517;49.020;12.066;2022-07-24T03:44:05;17.80;99.90
8965;DHT22;4517;49.020;12.066;2022-07-24T03:46:31;17.80;99.90
8965;DHT22;4517;49.020;12.066;2022-07-24T03:48:57;17.70;99.90
8965;DHT22;4517;49.020;12.066;2022-07-24T03:51:23;17.70;99.90
8965;DHT22;4517;49.020;12.066;2022-07-24T03:53:49;17.70;99.90
8965;DHT22;4517;49.020;12.066;2022-07-24T03:56:14;17.70;99.90
8965;DHT22;4517;49.020;12.066;2022-07-24T03:58:41;17.70;99.90
8965;DHT22;4517;49.020;12.066;2022-07-24T04:01:07;17.70;99.90
8965;DHT22;4517;49.020;12.066;2022-07-24T04:03:32;17.70;99.90
8965;DHT22;4517;49.020;12.066;2022-07-24T04:06:03;17.70;99.90
8965;DHT22;4517;49.020;12.066;2022-07-24T04:08:29;17.70;99.90
8965;DHT22;4517;49.020;12.066;2022-07-24T04:10:54;17.80;99.90
8965;DHT22;4517;49.020;12.066;2022-07-24T04:13:24;17.90;99.90
8965;DHT22;4517;49.020;12.066;2022-07-24T04:15:50;18.20;99.90
8965;DHT22;4517;49.020;12.066;2022-07-24T04:18:15;18.90;99.90
8965;DHT22;4517;49.020;12.066;2022-07-24T04:20:41;19.60;99.90
8965;DHT22;4517;49.020;12.066;2022-07-24T04:23:07;20.30;99.90
8965;DHT22;4517;49.020;12.066;2022-07-24T04:25:32;21.00;99.90
8965;DHT22;4517;49.020;12.066;2022-07-24T04:28:00;21.30;99.90
8965;DHT22;4517;49.020;12.066;2022-07-24T04:30:26;21.60;99.90
8965;DHT22;4517;49.020;12.066;2022-07-24T04:32:52;21.80;99.90
8965;DHT22;4517;49.020;12.066;2022-07-24T04:35:18;21.90;99.90
8965;DHT22;4517;49.020;12.066;2022-07-24T04:37:43;21.90;99.90
8965;DHT22;4517;49.020;12.066;2022-07-24T04:40:10;21.90;99.90
8965;DHT22;4517;49.020;12.066;2022-07-24T04:42:36;21.70;99.90
8965;DHT22;4517;49.020;12.066;2022-07-24T04:45:01;22.10;99.90
8965;DHT22;4517;49.020;12.066;2022-07-24T04:47:27;22.50;99.90
8965;DHT22;4517;49.020;12.066;2022-07-24T04:49:52;22.90;99.90
8965;DHT22;4517;49.020;12.066;2022-07-24T04:52:18;23.00;99.90
8965;DHT22;4517;49.020;12.066;2022-07-24T04:54:43;23.00;99.90
8965;DHT22;4517;49.020;12.066;2022-07-24T04:57:09;23.30;99.90
8965;DHT22;4517;49.020;12.066;2022-07-24T04:59:34;23.00;99.90
8965;DHT22;4517;49.020;12.066;2022-07-24T05:02:00;23.40;99.90
8965;DHT22;4517;49.020;12.066;2022-07-24T05:04:26;23.80;99.90
8965;DHT22;4517;49.020;12.066;2022-07-24T05:06:52;24.30;99.90
8965;DHT22;4517;49.020;12.066;2022-07-24T05:09:17;24.70;99.90
8965;DHT22;4517;49.020;12.066;2022-07-24T05:11:43;25.40;99.90
8965;DHT22;4517;49.020;12.066;2022-07-24T05:14:09;25.80;99.90
8965;DHT22;4517;49.020;12.066;2022-07-24T05:16:34;26.10;99.30
8965;DHT22;4517;49.020;12.066;2022-07-24T05:19:00;26.10;98.60
8965;DHT22;4517;49.020;12.066;2022-07-24T05:21:26;26.10;98.40
8965;DHT22;4517;49.020;12.066;2022-07-24T05:23:51;26.50;97.50
8965;DHT22;4517;49.020;12.066;2022-07-24T05:26:17;26.30;97.30
8965;DHT22;4517;49.020;12.066;2022-07-24T05:28:42;26.20;96.80
8965;DHT22;4517;49.020;12.066;2022-07-24T05:31:08;26.20;97.20
8965;DHT22;4517;49.020;12.066;2022-07-24T05:33:34;26.80;96.20
8965;DHT22;4517;49.020;12.066;2022-07-24T05:36:00;27.30;95.70
8965;DHT22;4517;49.020;12.066;2022-07-24T05:38:26;27.80;94.70
8965;DHT22;4517;49.020;12.066;2022-07-24T05:40:51;27.50;94.00
8965;DHT22;4517;49.020;12.066;2022-07-24T05:43:17;27.70;94.30
8965;DHT22;4517;49.020;12.066;2022-07-24T05:45:43;28.10;93.40
8965;DHT22;4517;49.020;12.066;2022-07-24T05:48:08;27.70;93.10
8965;DHT22;4517;49.020;12.066;2022-07-24T05:50:34;26.90;93.90
8965;DHT22;4517;49.020;12.066;2022-07-24T05:53:00;27.10;93.90
8965;DHT22;4517;49.020;12.066;2022-07-24T05:55:25;28.30;92.90
8965;DHT22;4517;49.020;12.066;2022-07-24T05:57:51;29.30;91.80
8965;DHT22;4517;49.020;12.066;2022-07-24T06:00:17;29.70;90.70
8965;DHT22;4517;49.020;12.066;2022-07-24T06:02:46;29.40;90.20
8965;DHT22;4517;49.020;12.066;2022-07-24T06:05:15;29.60;90.00
8965;DHT22;4517;49.020;12.066;2022-07-24T06:07:42;30.00;88.80
8965;DHT22;4517;49.020;12.066;2022-07-24T06:10:08;30.40;86.90
8965;DHT22;4517;49.020;12.066;2022-07-24T06:12:34;30.90;85.00
8965;DHT22;4517;49.020;12.066;2022-07-24T06:14:59;30.80;83.70
8965;DHT22;4517;49.020;12.066;2022-07-24T06:17:25;30.50;84.30
8965;DHT22;4517;49.020;12.066;2022-07-24T06:19:51;30.30;83.70
8965;DHT22;4517;49.020;12.066;2022-07-24T06:22:16;29.30;85.10
8965;DHT22;4517;49.020;12.066;2022-07-24T06:24:42;30.00;83.80
8965;DHT22;4517;49.020;12.066;2022-07-24T06:27:07;30.30;82.90
8965;DHT22;4517;49.020;12.066;2022-07-24T06:29:33;30.60;81.70
8965;DHT22;4517;49.020;12.066;2022-07-24T06:31:59;30.70;81.40
8965;DHT22;4517;49.020;12.066;2022-07-24T06:34:24;30.70;81.00
8965;DHT22;4517;49.020;12.066;2022-07-24T06:36:50;31.20;80.30
8965;DHT22;4517;49.020;12.066;2022-07-24T06:39:17;31.10;79.70
8965;DHT22;4517;49.020;12.066;2022-07-24T06:41:43;31.20;79.10
8965;DHT22;4517;49.020;12.066;2022-07-24T06:44:09;31.20;78.40
8965;DHT22;4517;49.020;12.066;2022-07-24T06:46:36;30.40;79.10
8965;DHT22;4517;49.020;12.066;2022-07-24T06:49:01;30.80;78.30
8965;DHT22;4517;49.020;12.066;2022-07-24T06:51:27;30.50;78.00
8965;DHT22;4517;49.020;12.066;2022-07-24T06:53:53;30.40;78.60
8965;DHT22;4517;49.020;12.066;2022-07-24T06:56:18;30.20;78.00
8965;DHT22;4517;49.020;12.066;2022-07-24T06:58:44;29.70;78.00
8965;DHT22;4517;49.020;12.066;2022-07-24T07:01:09;29.40;78.50
8965;DHT22;4517;49.020;12.066;2022-07-24T07:03:35;28.60;79.90
8965;DHT22;4517;49.020;12.066;2022-07-24T07:06:00;28.40;80.90
8965;DHT22;4517;49.020;12.066;2022-07-24T07:08:26;28.10;81.90
8965;DHT22;4517;49.020;12.066;2022-07-24T07:10:52;27.80;82.50
8965;DHT22;4517;49.020;12.066;2022-07-24T07:13:17;27.40;83.00
8965;DHT22;4517;49.020;12.066;2022-07-24T07:15:43;27.30;84.10
8965;DHT22;4517;49.020;12.066;2022-07-24T07:18:08;27.20;85.10
8965;DHT22;4517;49.020;12.066;2022-07-24T07:20:34;26.90;86.30
8965;DHT22;4517;49.020;12.066;2022-07-24T07:23:00;26.80;87.00
8965;DHT22;4517;49.020;12.066;2022-07-24T07:25:25;26.50;87.00
8965;DHT22;4517;49.020;12.066;2022-07-24T07:27:51;25.90;88.20
8965;DHT22;4517;49.020;12.066;2022-07-24T07:30:16;25.90;89.20
8965;DHT22;4517;49.020;12.066;2022-07-24T07:32:42;25.90;89.90
8965;DHT22;4517;49.020;12.066;2022-07-24T07:35:08;25.80;89.60
8965;DHT22;4517;49.020;12.066;2022-07-24T07:37:34;25.60;90.00
8965;DHT22;4517;49.020;12.066;2022-07-24T07:39:59;25.30;90.40
8965;DHT22;4517;49.020;12.066;2022-07-24T07:42:25;25.50;90.70
8965;DHT22;4517;49.020;12.066;2022-07-24T07:44:53;25.60;90.70
8965;DHT22;4517;49.020;12.066;2022-07-24T07:47:19;25.60;90.40
8965;DHT22;4517;49.020;12.066;2022-07-24T07:49:45;25.50;90.50
8965;DHT22;4517;49.020;12.066;2022-07-24T07:52:10;25.50;90.40
8965;DHT22;4517;49.020;12.066;2022-07-24T07:54:36;25.60;90.90
8965;DHT22;4517;49.020;12.066;2022-07-24T07:57:02;25.70;90.90
8965;DHT22;4517;49.020;12.066;2022-07-24T07:59:27;25.80;91.00
8965;DHT22;4517;49.020;12.066;2022-07-24T08:01:53;25.90;90.70
8965;DHT22;4517;49.020;12.066;2022-07-24T08:04:18;25.90;90.20
8965;DHT22;4517;49.020;12.066;2022-07-24T08:06:44;26.00;90.70
8965;DHT22;4517;49.020;12.066;2022-07-24T08:09:09;26.10;90.20
8965;DHT22;4517;49.020;12.066;2022-07-24T08:11:35;26.10;90.10
8965;DHT22;4517;49.020;12.066;2022-07-24T08:14:01;26.10;89.80
8965;DHT22;4517;49.020;12.066;2022-07-24T08:16:26;26.10;89.50
8965;DHT22;4517;49.020;12.066;2022-07-24T08:18:52;26.20;88.90
8965;DHT22;4517;49.020;12.066;2022-07-24T08:21:18;26.10;90.00
8965;DHT22;4517;49.020;12.066;2022-07-24T08:23:46;25.80;89.90
8965;DHT22;4517;49.020;12.066;2022-07-24T08:26:12;26.00;90.50
8965;DHT22;4517;49.020;12.066;2022-07-24T08:28:38;26.10;90.30
8965;DHT22;4517;49.020;12.066;2022-07-24T08:31:04;26.10;90.30
8965;DHT22;4517;49.020;12.066;2022-07-24T08:33:29;26.40;89.60
8965;DHT22;4517;49.020;12.066;2022-07-24T08:35:55;26.50;88.60
8965;DHT22;4517;49.020;12.066;2022-07-24T08:38:21;26.40;88.70
8965;DHT22;4517;49.020;12.066;2022-07-24T08:40:46;26.50;88.10
8965;DHT22;4517;49.020;12.066;2022-07-24T08:43:12;26.40;88.50
8965;DHT22;4517;49.020;12.066;2022-07-24T08:45:40;26.50;88.60
8965;DHT22;4517;49.020;12.066;2022-07-24T08:48:08;26.40;87.90
8965;DHT22;4517;49.020;12.066;2022-07-24T08:50:36;26.50;88.20
8965;DHT22;4517;49.020;12.066;2022-07-24T08:53:03;26.60;87.20
8965;DHT22;4517;49.020;12.066;2022-07-24T08:55:29;26.80;86.70
8965;DHT22;4517;49.020;12.066;2022-07-24T08:57:59;26.50;84.60
8965;DHT22;4517;49.020;12.066;2022-07-24T09:00:26;26.60;85.60
8965;DHT22;4517;49.020;12.066;2022-07-24T09:02:52;26.80;86.80
8965;DHT22;4517;49.020;12.066;2022-07-24T09:05:18;26.90;86.60
8965;DHT22;4517;49.020;12.066;2022-07-24T09:07:44;27.00;85.40
8965;DHT22;4517;49.020;12.066;2022-07-24T09:10:12;27.10;85.50
8965;DHT22;4517;49.020;12.066;2022-07-24T09:12:43;27.00;82.90
8965;DHT22;4517;49.020;12.066;2022-07-24T09:15:16;27.20;84.10
8965;DHT22;4517;49.020;12.066;2022-07-24T09:20:17;27.30;80.20
8965;DHT22;4517;49.020;12.066;2022-07-24T09:22:43;27.30;80.60
8965;DHT22;4517;49.020;12.066;2022-07-24T09:27:37;27.60;77.10
8965;DHT22;4517;49.020;12.066;2022-07-24T09:30:04;27.80;76.60
8965;DHT22;4517;49.020;12.066;2022-07-24T09:32:31;28.00;77.90
8965;DHT22;4517;49.020;12.066;2022-07-24T09:34:56;28.10;77.60
8965;DHT22;4517;49.020;12.066;2022-07-24T09:37:22;28.10;77.50
8965;DHT22;4517;49.020;12.066;2022-07-24T09:39:51;28.10;75.80
8965;DHT22;4517;49.020;12.066;2022-07-24T09:42:16;28.20;74.00
8965;DHT22;4517;49.020;12.066;2022-07-24T09:44:42;28.40;75.00
8965;DHT22;4517;49.020;12.066;2022-07-24T09:47:11;28.40;74.60
8965;DHT22;4517;49.020;12.066;2022-07-24T09:49:38;28.40;74.40
8965;DHT22;4517;49.020;12.066;2022-07-24T09:54:37;28.10;71.30
8965;DHT22;4517;49.020;12.066;2022-07-24T09:59:47;28.40;71.70
8965;DHT22;4517;49.020;12.066;2022-07-24T10:02:14;28.50;70.00
8965;DHT22;4517;49.020;12.066;2022-07-24T10:04:42;28.60;69.40
8965;DHT22;4517;49.020;12.066;2022-07-24T10:07:11;28.50;68.80
8965;DHT22;4517;49.020;12.066;2022-07-24T10:09:41;28.60;69.40
8965;DHT22;4517;49.020;12.066;2022-07-24T10:12:16;28.30;68.20
8965;DHT22;4517;49.020;12.066;2022-07-24T10:14:43;28.30;67.50
8965;DHT22;4517;49.020;12.066;2022-07-24T10:17:11;28.40;65.90
8965;DHT22;4517;49.020;12.066;2022-07-24T10:19:45;28.20;65.50
8965;DHT22;4517;49.020;12.066;2022-07-24T10:22:22;28.10;66.30
8965;DHT22;4517;49.020;12.066;2022-07-24T10:27:28;28.60;66.70
8965;DHT22;4517;49.020;12.066;2022-07-24T10:29:58;29.00;64.60
8965;DHT22;4517;49.020;12.066;2022-07-24T10:32:25;29.20;64.50
8965;DHT22;4517;49.020;12.066;2022-07-24T10:45:36;29.20;63.80
8965;DHT22;4517;49.020;12.066;2022-07-24T10:51:12;29.30;61.50
8965;DHT22;4517;49.020;12.066;2022-07-24T10:53:43;29.30;62.30
8965;DHT22;4517;49.020;12.066;2022-07-24T10:56:29;29.30;62.80
8965;DHT22;4517;49.020;12.066;2022-07-24T11:01:43;29.70;62.00
8965;DHT22;4517;49.020;12.066;2022-07-24T11:09:59;30.10;60.80
8965;DHT22;4517;49.020;12.066;2022-07-24T11:12:32;29.90;60.80
8965;DHT22;4517;49.020;12.066;2022-07-24T11:15:03;30.10;60.80
8965;DHT22;4517;49.020;12.066;2022-07-24T11:17:49;30.20;59.90
8965;DHT22;4517;49.020;12.066;2022-07-24T11:20:17;30.30;59.70
8965;DHT22;4517;49.020;12.066;2022-07-24T11:22:46;30.40;59.50
8965;DHT22;4517;49.020;12.066;2022-07-24T11:25:19;30.50;58.60
8965;DHT22;4517;49.020;12.066;2022-07-24T11:30:33;30.20;58.40
8965;DHT22;4517;49.020;12.066;2022-07-24T11:33:06;29.90;58.70
8965;DHT22;4517;49.020;12.066;2022-07-24T11:35:36;29.70;58.20
8965;DHT22;4517;49.020;12.066;2022-07-24T11:38:05;29.60;58.30
8965;DHT22;4517;49.020;12.066;2022-07-24T11:40:31;30.00;58.30
8965;DHT22;4517;49.020;12.066;2022-07-24T11:42:59;30.20;57.90
8965;DHT22;4517;49.020;12.066;2022-07-24T11:45:25;30.10;58.30
8965;DHT22;4517;49.020;12.066;2022-07-24T11:47:51;30.30;57.90
8965;DHT22;4517;49.020;12.066;2022-07-24T11:50:23;30.60;58.30
8965;DHT22;4517;49.020;12.066;2022-07-24T11:52:50;31.00;58.40
8965;DHT22;4517;49.020;12.066;2022-07-24T11:55:22;31.20;57.50
8965;DHT22;4517;49.020;12.066;2022-07-24T11:57:51;31.40;57.60
8965;DHT22;4517;49.020;12.066;2022-07-24T12:00:20;31.40;57.40
8965;DHT22;4517;49.020;12.066;2022-07-24T12:02:52;31.40;56.80
8965;DHT22;4517;49.020;12.066;2022-07-24T12:07:55;31.60;56.40
8965;DHT22;4517;49.020;12.066;2022-07-24T12:10:21;31.70;56.20
8965;DHT22;4517;49.020;12.066;2022-07-24T12:12:49;31.80;55.60
8965;DHT22;4517;49.020;12.066;2022-07-24T12:15:15;31.10;55.50
8965;DHT22;4517;49.020;12.066;2022-07-24T12:18:02;30.70;55.80
8965;DHT22;4517;49.020;12.066;2022-07-24T12:20:40;30.80;56.10
8965;DHT22;4517;49.020;12.066;2022-07-24T12:23:09;31.00;55.60
8965;DHT22;4517;49.020;12.066;2022-07-24T12:25:35;31.30;55.90
8965;DHT22;4517;49.020;12.066;2022-07-24T12:28:06;31.30;54.90
8965;DHT22;4517;49.020;12.066;2022-07-24T12:33:22;31.30;55.50
8965;DHT22;4517;49.020;12.066;2022-07-24T12:36:03;31.20;55.70
8965;DHT22;4517;49.020;12.066;2022-07-24T12:38:58;31.10;55.50
8965;DHT22;4517;49.020;12.066;2022-07-24T12:41:26;30.70;55.30
8965;DHT22;4517;49.020;12.066;2022-07-24T12:44:03;30.60;55.30
8965;DHT22;4517;49.020;12.066;2022-07-24T12:46:30;30.50;55.90
8965;DHT22;4517;49.020;12.066;2022-07-24T12:51:26;30.60;55.80
8965;DHT22;4517;49.020;12.066;2022-07-24T12:53:54;30.80;55.50
8965;DHT22;4517;49.020;12.066;2022-07-24T12:56:20;30.80;55.50
8965;DHT22;4517;49.020;12.066;2022-07-24T12:58:56;30.50;55.30
8965;DHT22;4517;49.020;12.066;2022-07-24T13:01:23;30.60;56.00
8965;DHT22;4517;49.020;12.066;2022-07-24T13:04:09;30.60;55.50
8965;DHT22;4517;49.020;12.066;2022-07-24T13:06:46;30.60;55.60
8965;DHT22;4517;49.020;12.066;2022-07-24T13:09:13;30.30;55.20
8965;DHT22;4517;49.020;12.066;2022-07-24T13:11:40;30.20;55.60
8965;DHT22;4517;49.020;12.066;2022-07-24T13:14:06;30.20;55.70
8965;DHT22;4517;49.020;12.066;2022-07-24T13:16:35;30.40;55.80
8965;DHT22;4517;49.020;12.066;2022-07-24T13:19:02;30.50;55.40
8965;DHT22;4517;49.020;12.066;2022-07-24T13:21:28;30.70;55.20
8965;DHT22;4517;49.020;12.066;2022-07-24T13:23:54;30.90;54.40
8965;DHT22;4517;49.020;12.066;2022-07-24T13:26:20;31.10;54.50
8965;DHT22;4517;49.020;12.066;2022-07-24T13:28:46;31.20;54.80
8965;DHT22;4517;49.020;12.066;2022-07-24T13:31:12;31.60;55.00
8965;DHT22;4517;49.020;12.066;2022-07-24T13:33:38;31.70;54.70
8965;DHT22;4517;49.020;12.066;2022-07-24T13:36:04;31.90;54.50
8965;DHT22;4517;49.020;12.066;2022-07-24T13:38:29;31.90;53.50
8965;DHT22;4517;49.020;12.066;2022-07-24T13:40:55;32.10;54.00
8965;DHT22;4517;49.020;12.066;2022-07-24T13:43:21;32.30;53.20
8965;DHT22;4517;49.020;12.066;2022-07-24T13:45:46;32.30;53.30
8965;DHT22;4517;49.020;12.066;2022-07-24T13:48:12;32.20;53.20
8965;DHT22;4517;49.020;12.066;2022-07-24T13:50:37;32.00;53.20
8965;DHT22;4517;49.020;12.066;2022-07-24T13:53:03;31.70;52.90
8965;DHT22;4517;49.020;12.066;2022-07-24T13:55:31;31.80;53.20
8965;DHT22;4517;49.020;12.066;2022-07-24T13:57:57;31.60;53.30
8965;DHT22;4517;49.020;12.066;2022-07-24T14:00:22;31.50;53.50
8965;DHT22;4517;49.020;12.066;2022-07-24T14:02:50;31.70;53.40
8965;DHT22;4517;49.020;12.066;2022-07-24T14:05:15;31.60;53.20
8965;DHT22;4517;49.020;12.066;2022-07-24T14:07:41;31.70;53.10
8965;DHT22;4517;49.020;12.066;2022-07-24T14:10:07;31.50;53.30
8965;DHT22;4517;49.020;12.066;2022-07-24T14:12:33;31.80;54.00
8965;DHT22;4517;49.020;12.066;2022-07-24T14:14:58;32.00;53.60
8965;DHT22;4517;49.020;12.066;2022-07-24T14:17:24;32.10;53.70
8965;DHT22;4517;49.020;12.066;2022-07-24T14:19:49;32.00;52.80
8965;DHT22;4517;49.020;12.066;2022-07-24T14:22:15;31.90;53.30
8965;DHT22;4517;49.020;12.066;2022-07-24T14:24:40;31.80;53.60
8965;DHT22;4517;49.020;12.066;2022-07-24T14:27:06;31.80;54.00
8965;DHT22;4517;49.020;12.066;2022-07-24T14:29:31;31.80;53.60
8965;DHT22;4517;49.020;12.066;2022-07-24T14:31:57;31.70;53.60
8965;DHT22;4517;49.020;12.066;2022-07-24T14:34:23;31.80;53.20
8965;DHT22;4517;49.020;12.066;2022-07-24T14:36:48;31.70;52.80
8965;DHT22;4517;49.020;12.066;2022-07-24T14:39:14;31.30;53.00
8965;DHT22;4517;49.020;12.066;2022-07-24T14:41:39;31.30;53.40
8965;DHT22;4517;49.020;12.066;2022-07-24T14:44:05;31.20;52.90
8965;DHT22;4517;49.020;12.066;2022-07-24T14:46:31;31.20;53.70
8965;DHT22;4517;49.020;12.066;2022-07-24T14:48:56;31.10;53.10
8965;DHT22;4517;49.020;12.066;2022-07-24T14:51:22;31.20;53.00
8965;DHT22;4517;49.020;12.066;2022-07-24T14:53:47;31.20;52.50
8965;DHT22;4517;49.020;12.066;2022-07-24T14:56:13;31.30;52.50
8965;DHT22;4517;49.020;12.066;2022-07-24T14:58:39;31.10;52.20
8965;DHT22;4517;49.020;12.066;2022-07-24T15:01:04;31.10;52.40
8965;DHT22;4517;49.020;12.066;2022-07-24T15:03:30;30.90;52.40
8965;DHT22;4517;49.020;12.066;2022-07-24T15:05:55;31.00;52.40
8965;DHT22;4517;49.020;12.066;2022-07-24T15:08:21;31.10;52.10
8965;DHT22;4517;49.020;12.066;2022-07-24T15:10:47;31.10;52.10
8965;DHT22;4517;49.020;12.066;2022-07-24T15:13:12;31.20;52.30
8965;DHT22;4517;49.020;12.066;2022-07-24T15:15:38;31.20;53.10
8965;DHT22;4517;49.020;12.066;2022-07-24T15:18:03;31.20;52.60
8965;DHT22;4517;49.020;12.066;2022-07-24T15:20:29;31.00;52.40
8965;DHT22;4517;49.020;12.066;2022-07-24T15:22:54;31.00;52.40
8965;DHT22;4517;49.020;12.066;2022-07-24T15:25:20;31.10;52.10
8965;DHT22;4517;49.020;12.066;2022-07-24T15:27:46;31.20;52.10
8965;DHT22;4517;49.020;12.066;2022-07-24T15:30:16;31.20;51.40
8965;DHT22;4517;49.020;12.066;2022-07-24T15:32:42;31.10;52.00
8965;DHT22;4517;49.020;12.066;2022-07-24T15:35:08;31.20;52.40
8965;DHT22;4517;49.020;12.066;2022-07-24T15:37:33;31.40;52.00
8965;DHT22;4517;49.020;12.066;2022-07-24T15:39:59;31.40;51.90
8965;DHT22;4517;49.020;12.066;2022-07-24T15:42:25;31.50;52.10
8965;DHT22;4517;49.020;12.066;2022-07-24T15:44:51;31.30;51.70
8965;DHT22;4517;49.020;12.066;2022-07-24T15:47:17;31.30;52.20
8965;DHT22;4517;49.020;12.066;2022-07-24T15:49:42;31.50;51.90
8965;DHT22;4517;49.020;12.066;2022-07-24T15:52:08;31.40;51.60
8965;DHT22;4517;49.020;12.066;2022-07-24T15:54:35;31.50;52.30
8965;DHT22;4517;49.020;12.066;2022-07-24T15:57:00;31.60;51.70
8965;DHT22;4517;49.020;12.066;2022-07-24T15:59:26;31.50;51.30
8965;DHT22;4517;49.020;12.066;2022-07-24T16:01:51;31.40;51.80
8965;DHT22;4517;49.020;12.066;2022-07-24T16:04:17;31.50;52.20
8965;DHT22;4517;49.020;12.066;2022-07-24T16:06:44;31.70;52.10
8965;DHT22;4517;49.020;12.066;2022-07-24T16:09:10;31.80;51.40
8965;DHT22;4517;49.020;12.066;2022-07-24T16:11:35;32.00;51.30
8965;DHT22;4517;49.020;12.066;2022-07-24T16:14:01;32.00;51.20
8965;DHT22;4517;49.020;12.066;2022-07-24T16:16:27;32.10;51.00
8965;DHT22;4517;49.020;12.066;2022-07-24T16:18:53;32.50;51.30
8965;DHT22;4517;49.020;12.066;2022-07-24T16:21:18;33.10;50.80
8965;DHT22;4517;49.020;12.066;2022-07-24T16:23:44;33.90;49.80
8965;DHT22;4517;49.020;12.066;2022-07-24T16:26:09;34.80;49.40
8965;DHT22;4517;49.020;12.066;2022-07-24T16:28:35;35.30;48.70